sensor_id;sensor_type;location;lat;lon;timestamp;pressure;altitude;pressure_sealevel;temperature;humidity
59531;BME280;45349;48.692;8.186;2024-02-26T00:01:09;148397.78;;;8.96;58.47
59531;BME280;45349;48.692;8.186;2024-02-26T00:03:35;148376.66;;;8.88;63.29
59531;BME280;45349;48.692;8.186;2024-02-26T00:06:04;148365.44;;;8.83;59.82
59531;BME280;45349;48.692;8.186;2024-02-26T00:08:32;148344.28;;;8.74;64.01
59531;BME280;45349;48.692;8.186;2024-02-26T00:10:59;148346.78;;;8.75;62.33
59531;BME280;45349;48.692;8.186;2024-02-26T00:13:25;148346.78;;;8.75;62.55
59531;BME280;45349;48.692;8.186;2024-02-26T00:15:52;148348.00;;;8.76;63.97
59531;BME280;45349;48.692;8.186;2024-02-26T00:18:18;148343.03;;;8.74;62.40
59531;BME280;45349;48.692;8.186;2024-02-26T00:20:45;148352.97;;;8.78;63.21
59531;BME280;45349;48.692;8.186;2024-02-26T00:23:14;148350.50;;;8.77;63.38
59531;BME280;45349;48.692;8.186;2024-02-26T00:25:42;148348.00;;;8.76;63.23
59531;BME280;45349;48.692;8.186;2024-02-26T00:28:10;148333.06;;;8.69;66.10
59531;BME280;45349;48.692;8.186;2024-02-26T00:30:38;148316.94;;;8.63;65.22
59531;BME280;45349;48.692;8.186;2024-02-26T00:33:05;148320.63;;;8.64;68.43
59531;BME280;45349;48.692;8.186;2024-02-26T00:35:32;148285.81;;;8.50;71.08
59531;BME280;45349;48.692;8.186;2024-02-26T00:37:58;148282.06;;;8.48;69.06
59531;BME280;45349;48.692;8.186;2024-02-26T00:40:26;148263.41;;;8.40;71.24
59531;BME280;45349;48.692;8.186;2024-02-26T00:42:54;148247.22;;;8.34;71.31
59531;BME280;45349;48.692;8.186;2024-02-26T00:45:21;148244.75;;;8.33;72.63
59531;BME280;45349;48.692;8.186;2024-02-26T00:47:48;148219.88;;;8.22;74.41
59531;BME280;45349;48.692;8.186;2024-02-26T00:50:15;148222.34;;;8.23;73.74
59531;BME280;45349;48.692;8.186;2024-02-26T00:52:42;148192.50;;;8.11;81.26
59531;BME280;45349;48.692;8.186;2024-02-26T00:55:09;148178.84;;;8.05;81.23
59531;BME280;45349;48.692;8.186;2024-02-26T00:57:35;148175.09;;;8.04;74.55
59531;BME280;45349;48.692;8.186;2024-02-26T01:00:05;148187.53;;;8.09;73.65
59531;BME280;45349;48.692;8.186;2024-02-26T01:02:34;148191.28;;;8.10;75.17
59531;BME280;45349;48.692;8.186;2024-02-26T01:05:00;148170.13;;;8.02;77.94
59531;BME280;45349;48.692;8.186;2024-02-26T01:07:28;148141.56;;;7.90;79.04
59531;BME280;45349;48.692;8.186;2024-02-26T01:09:58;148137.84;;;7.88;80.33
59531;BME280;45349;48.692;8.186;2024-02-26T01:12:25;148121.66;;;7.81;81.23
59531;BME280;45349;48.692;8.186;2024-02-26T01:14:51;148103.03;;;7.74;83.05
59531;BME280;45349;48.692;8.186;2024-02-26T01:17:19;148086.84;;;7.67;85.46
59531;BME280;45349;48.692;8.186;2024-02-26T01:19:46;148066.97;;;7.59;87.56
59531;BME280;45349;48.692;8.186;2024-02-26T01:22:13;148040.88;;;7.48;93.10
59531;BME280;45349;48.692;8.186;2024-02-26T01:24:39;148021.00;;;7.39;94.53
59531;BME280;45349;48.692;8.186;2024-02-26T01:27:06;147997.41;;;7.30;99.65
59531;BME280;45349;48.692;8.186;2024-02-26T01:29:34;147942.72;;;7.07;100.00
59531;BME280;45349;48.692;8.186;2024-02-26T01:32:00;147924.06;;;6.99;100.00
59531;BME280;45349;48.692;8.186;2024-02-26T01:34:29;147915.38;;;6.96;100.00
59531;BME280;45349;48.692;8.186;2024-02-26T01:36:56;147902.97;;;6.90;100.00
59531;BME280;45349;48.692;8.186;2024-02-26T01:39:22;147885.56;;;6.83;100.00
59531;BME280;45349;48.692;8.186;2024-02-26T01:41:49;147878.13;;;6.80;100.00
59531;BME280;45349;48.692;8.186;2024-02-26T01:44:16;147873.13;;;6.78;100.00
59531;BME280;45349;48.692;8.186;2024-02-26T01:46:42;147830.91;;;6.60;100.00
59531;BME280;45349;48.692;8.186;2024-02-26T01:49:11;147817.25;;;6.55;100.00
59531;BME280;45349;48.692;8.186;2024-02-26T01:51:41;147816.00;;;6.54;100.00
59531;BME280;45349;48.692;8.186;2024-02-26T01:54:09;147814.78;;;6.54;100.00
59531;BME280;45349;48.692;8.186;2024-02-26T01:56:37;147808.53;;;6.51;100.00
59531;BME280;45349;48.692;8.186;2024-02-26T01:59:05;147773.78;;;6.37;100.00
59531;BME280;45349;48.692;8.186;2024-02-26T02:01:34;147758.91;;;6.30;100.00
59531;BME280;45349;48.692;8.186;2024-02-26T02:04:02;147747.72;;;6.26;100.00
59531;BME280;45349;48.692;8.186;2024-02-26T02:06:28;147734.06;;;6.20;100.00
59531;BME280;45349;48.692;8.186;2024-02-26T02:08:56;147719.16;;;6.14;100.00
59531;BME280;45349;48.692;8.186;2024-02-26T02:11:23;147720.38;;;6.14;100.00
59531;BME280;45349;48.692;8.186;2024-02-26T02:13:50;147710.47;;;6.10;100.00
59531;BME280;45349;48.692;8.186;2024-02-26T02:16:17;147716.69;;;6.13;100.00
59531;BME280;45349;48.692;8.186;2024-02-26T02:18:43;147711.72;;;6.11;100.00
59531;BME280;45349;48.692;8.186;2024-02-26T02:21:12;147721.66;;;6.15;100.00
59531;BME280;45349;48.692;8.186;2024-02-26T02:23:38;147739.03;;;6.22;100.00
59531;BME280;45349;48.692;8.186;2024-02-26T02:26:05;147744.00;;;6.24;100.00
59531;BME280;45349;48.692;8.186;2024-02-26T02:28:32;147727.84;;;6.17;100.00
59531;BME280;45349;48.692;8.186;2024-02-26T02:30:59;147725.34;;;6.16;100.00
59531;BME280;45349;48.692;8.186;2024-02-26T02:33:26;147740.25;;;6.23;100.00
59531;BME280;45349;48.692;8.186;2024-02-26T02:35:53;147745.22;;;6.25;100.00
59531;BME280;45349;48.692;8.186;2024-02-26T02:38:21;147761.41;;;6.31;100.00
59531;BME280;45349;48.692;8.186;2024-02-26T02:40:49;147752.69;;;6.28;100.00
59531;BME280;45349;48.692;8.186;2024-02-26T02:43:15;147781.22;;;6.40;100.00
59531;BME280;45349;48.692;8.186;2024-02-26T02:45:42;147789.94;;;6.43;100.00
59531;BME280;45349;48.692;8.186;2024-02-26T02:48:09;147789.94;;;6.43;100.00
59531;BME280;45349;48.692;8.186;2024-02-26T02:50:37;147804.84;;;6.49;100.00
59531;BME280;45349;48.692;8.186;2024-02-26T02:53:03;147794.91;;;6.45;100.00
59531;BME280;45349;48.692;8.186;2024-02-26T02:55:32;147801.09;;;6.48;100.00
59531;BME280;45349;48.692;8.186;2024-02-26T02:57:58;147801.09;;;6.48;100.00
59531;BME280;45349;48.692;8.186;2024-02-26T03:00:25;147807.31;;;6.50;100.00
59531;BME280;45349;48.692;8.186;2024-02-26T03:02:51;147819.75;;;6.56;100.00
59531;BME280;45349;48.692;8.186;2024-02-26T03:05:18;147837.13;;;6.63;97.65
59531;BME280;45349;48.692;8.186;2024-02-26T03:07:44;147844.59;;;6.66;99.77
59531;BME280;45349;48.692;8.186;2024-02-26T03:10:11;147853.25;;;6.70;98.61
59531;BME280;45349;48.692;8.186;2024-02-26T03:12:39;147840.84;;;6.64;100.00
59531;BME280;45349;48.692;8.186;2024-02-26T03:15:06;147833.38;;;6.61;99.29
59531;BME280;45349;48.692;8.186;2024-02-26T03:17:33;147834.66;;;6.62;100.00
59531;BME280;45349;48.692;8.186;2024-02-26T03:20:00;147848.28;;;6.68;99.19
59531;BME280;45349;48.692;8.186;2024-02-26T03:22:28;147850.78;;;6.69;97.86
59531;BME280;45349;48.692;8.186;2024-02-26T03:24:55;147863.19;;;6.74;96.30
59531;BME280;45349;48.692;8.186;2024-02-26T03:27:21;147883.09;;;6.82;95.65
59531;BME280;45349;48.692;8.186;2024-02-26T03:29:49;147889.31;;;6.85;95.49
59531;BME280;45349;48.692;8.186;2024-02-26T03:32:16;147874.41;;;6.78;95.92
59531;BME280;45349;48.692;8.186;2024-02-26T03:34:43;147873.13;;;6.78;97.10
59531;BME280;45349;48.692;8.186;2024-02-26T03:37:09;147885.56;;;6.83;94.81
59531;BME280;45349;48.692;8.186;2024-02-26T03:39:36;147895.50;;;6.87;94.56
59531;BME280;45349;48.692;8.186;2024-02-26T03:42:03;147888.06;;;6.84;96.04
59531;BME280;45349;48.692;8.186;2024-02-26T03:44:30;147895.50;;;6.87;95.99
59531;BME280;45349;48.692;8.186;2024-02-26T03:46:58;147890.53;;;6.85;95.38
59531;BME280;45349;48.692;8.186;2024-02-26T03:49:24;147893.03;;;6.86;96.69
59531;BME280;45349;48.692;8.186;2024-02-26T03:51:51;147910.41;;;6.93;95.62
59531;BME280;45349;48.692;8.186;2024-02-26T03:54:18;147935.28;;;7.04;95.04
59531;BME280;45349;48.692;8.186;2024-02-26T03:56:44;147930.28;;;7.02;96.62
59531;BME280;45349;48.692;8.186;2024-02-26T03:59:11;147935.28;;;7.04;97.33
59531;BME280;45349;48.692;8.186;2024-02-26T04:04:20;147925.31;;;7.00;100.00
59531;BME280;45349;48.692;8.186;2024-02-26T04:06:47;147917.88;;;6.97;100.00
59531;BME280;45349;48.692;8.186;2024-02-26T04:09:14;147914.13;;;6.95;100.00
59531;BME280;45349;48.692;8.186;2024-02-26T04:11:41;147904.19;;;6.91;100.00
59531;BME280;45349;48.692;8.186;2024-02-26T04:14:09;147888.06;;;6.84;100.00
59531;BME280;45349;48.692;8.186;2024-02-26T04:16:37;147854.53;;;6.70;100.00
59531;BME280;45349;48.692;8.186;2024-02-26T04:19:04;147837.13;;;6.63;100.00
59531;BME280;45349;48.692;8.186;2024-02-26T04:21:33;147829.69;;;6.60;100.00
59531;BME280;45349;48.692;8.186;2024-02-26T04:24:02;147818.47;;;6.55;100.00
59531;BME280;45349;48.692;8.186;2024-02-26T04:26:30;147816.00;;;6.54;100.00
59531;BME280;45349;48.692;8.186;2024-02-26T04:28:56;147807.31;;;6.50;100.00
59531;BME280;45349;48.692;8.186;2024-02-26T04:31:23;147792.44;;;6.44;100.00
59531;BME280;45349;48.692;8.186;2024-02-26T04:33:50;147792.44;;;6.44;100.00
59531;BME280;45349;48.692;8.186;2024-02-26T04:36:16;147794.91;;;6.45;100.00
59531;BME280;45349;48.692;8.186;2024-02-26T04:38:44;147801.09;;;6.48;100.00
59531;BME280;45349;48.692;8.186;2024-02-26T04:41:11;147803.56;;;6.49;100.00
59531;BME280;45349;48.692;8.186;2024-02-26T04:43:38;147812.28;;;6.53;100.00
59531;BME280;45349;48.692;8.186;2024-02-26T04:46:07;147816.00;;;6.54;100.00
59531;BME280;45349;48.692;8.186;2024-02-26T04:48:33;147812.28;;;6.53;100.00
59531;BME280;45349;48.692;8.186;2024-02-26T04:51:00;147813.50;;;6.53;100.00
59531;BME280;45349;48.692;8.186;2024-02-26T04:53:27;147823.47;;;6.57;100.00
59531;BME280;45349;48.692;8.186;2024-02-26T04:55:55;147827.19;;;6.59;100.00
59531;BME280;45349;48.692;8.186;2024-02-26T04:58:22;147830.91;;;6.60;100.00
59531;BME280;45349;48.692;8.186;2024-02-26T05:00:49;147835.88;;;6.62;100.00
59531;BME280;45349;48.692;8.186;2024-02-26T05:03:16;147820.97;;;6.56;100.00
59531;BME280;45349;48.692;8.186;2024-02-26T05:05:43;147820.97;;;6.56;100.00
59531;BME280;45349;48.692;8.186;2024-02-26T05:08:10;147813.50;;;6.53;100.00
59531;BME280;45349;48.692;8.186;2024-02-26T05:10:37;147813.50;;;6.53;100.00
59531;BME280;45349;48.692;8.186;2024-02-26T05:13:07;147809.81;;;6.52;100.00
59531;BME280;45349;48.692;8.186;2024-02-26T05:15:34;147803.56;;;6.49;100.00
59531;BME280;45349;48.692;8.186;2024-02-26T05:18:01;147803.56;;;6.49;100.00
59531;BME280;45349;48.692;8.186;2024-02-26T05:20:27;147797.41;;;6.46;100.00
59531;BME280;45349;48.692;8.186;2024-02-26T05:22:54;147788.66;;;6.43;100.00
59531;BME280;45349;48.692;8.186;2024-02-26T05:25:21;147796.13;;;6.46;100.00
59531;BME280;45349;48.692;8.186;2024-02-26T05:27:47;147786.19;;;6.42;100.00
59531;BME280;45349;48.692;8.186;2024-02-26T05:30:16;147783.72;;;6.41;100.00
59531;BME280;45349;48.692;8.186;2024-02-26T05:32:42;147777.50;;;6.38;100.00
59531;BME280;45349;48.692;8.186;2024-02-26T05:35:09;147768.84;;;6.34;100.00
59531;BME280;45349;48.692;8.186;2024-02-26T05:37:36;147767.59;;;6.34;100.00
59531;BME280;45349;48.692;8.186;2024-02-26T05:40:03;147756.44;;;6.29;100.00
59531;BME280;45349;48.692;8.186;2024-02-26T05:42:31;147758.91;;;6.30;100.00
59531;BME280;45349;48.692;8.186;2024-02-26T05:44:58;147745.22;;;6.25;100.00
59531;BME280;45349;48.692;8.186;2024-02-26T05:47:32;147745.22;;;6.25;100.00
59531;BME280;45349;48.692;8.186;2024-02-26T05:49:58;147740.25;;;6.23;100.00
59531;BME280;45349;48.692;8.186;2024-02-26T05:52:26;147732.81;;;6.19;100.00
59531;BME280;45349;48.692;8.186;2024-02-26T05:54:53;147735.28;;;6.20;100.00
59531;BME280;45349;48.692;8.186;2024-02-26T05:57:19;147735.28;;;6.20;100.00
59531;BME280;45349;48.692;8.186;2024-02-26T05:59:46;147741.53;;;6.23;100.00
59531;BME280;45349;48.692;8.186;2024-02-26T06:02:13;147746.50;;;6.25;100.00
59531;BME280;45349;48.692;8.186;2024-02-26T06:04:41;147741.53;;;6.23;100.00
59531;BME280;45349;48.692;8.186;2024-02-26T06:07:07;147737.78;;;6.22;100.00
59531;BME280;45349;48.692;8.186;2024-02-26T06:09:34;147726.63;;;6.17;100.00
59531;BME280;45349;48.692;8.186;2024-02-26T06:12:01;147724.13;;;6.16;100.00
59531;BME280;45349;48.692;8.186;2024-02-26T06:14:28;147727.84;;;6.17;100.00
59531;BME280;45349;48.692;8.186;2024-02-26T06:16:54;147724.13;;;6.16;100.00
59531;BME280;45349;48.692;8.186;2024-02-26T06:19:21;147720.38;;;6.14;100.00
59531;BME280;45349;48.692;8.186;2024-02-26T06:21:49;147735.28;;;6.20;100.00
59531;BME280;45349;48.692;8.186;2024-02-26T06:24:16;147726.63;;;6.17;100.00
59531;BME280;45349;48.692;8.186;2024-02-26T06:26:43;147729.09;;;6.18;100.00
59531;BME280;45349;48.692;8.186;2024-02-26T06:29:09;147731.59;;;6.19;100.00
59531;BME280;45349;48.692;8.186;2024-02-26T06:31:36;147737.78;;;6.22;100.00
59531;BME280;45349;48.692;8.186;2024-02-26T06:34:02;147750.19;;;6.27;100.00
59531;BME280;45349;48.692;8.186;2024-02-26T06:36:29;147746.50;;;6.25;100.00
59531;BME280;45349;48.692;8.186;2024-02-26T06:38:58;147746.50;;;6.25;100.00
59531;BME280;45349;48.692;8.186;2024-02-26T06:41:25;147748.97;;;6.26;100.00
59531;BME280;45349;48.692;8.186;2024-02-26T06:43:53;147758.91;;;6.30;100.00
59531;BME280;45349;48.692;8.186;2024-02-26T06:46:19;147780.00;;;6.39;100.00
59531;BME280;45349;48.692;8.186;2024-02-26T06:48:47;147809.81;;;6.52;100.00
59531;BME280;45349;48.692;8.186;2024-02-26T06:51:14;147845.81;;;6.67;100.00
59531;BME280;45349;48.692;8.186;2024-02-26T06:53:41;147870.66;;;6.77;100.00
59531;BME280;45349;48.692;8.186;2024-02-26T06:56:09;147922.84;;;6.99;100.00
59531;BME280;45349;48.692;8.186;2024-02-26T06:58:34;147951.41;;;7.11;100.00
59531;BME280;45349;48.692;8.186;2024-02-26T07:01:01;147963.81;;;7.16;100.00
59531;BME280;45349;48.692;8.186;2024-02-26T07:03:27;147963.81;;;7.16;100.00
59531;BME280;45349;48.692;8.186;2024-02-26T07:05:55;147972.53;;;7.19;100.00
59531;BME280;45349;48.692;8.186;2024-02-26T07:08:22;147971.28;;;7.19;100.00
59531;BME280;45349;48.692;8.186;2024-02-26T07:10:49;147986.19;;;7.25;100.00
59531;BME280;45349;48.692;8.186;2024-02-26T07:13:17;147968.78;;;7.18;100.00
59531;BME280;45349;48.692;8.186;2024-02-26T07:15:43;147976.25;;;7.21;100.00
59531;BME280;45349;48.692;8.186;2024-02-26T07:18:10;147980.00;;;7.22;100.00
59531;BME280;45349;48.692;8.186;2024-02-26T07:20:36;147991.16;;;7.27;100.00
59531;BME280;45349;48.692;8.186;2024-02-26T07:23:03;147994.91;;;7.29;100.00
59531;BME280;45349;48.692;8.186;2024-02-26T07:25:30;148008.56;;;7.34;100.00
59531;BME280;45349;48.692;8.186;2024-02-26T07:27:57;148016.03;;;7.37;100.00
59531;BME280;45349;48.692;8.186;2024-02-26T07:30:25;148029.66;;;7.43;100.00
59531;BME280;45349;48.692;8.186;2024-02-26T07:32:51;148032.16;;;7.44;100.00
59531;BME280;45349;48.692;8.186;2024-02-26T07:35:18;148042.09;;;7.48;100.00
59531;BME280;45349;48.692;8.186;2024-02-26T07:37:48;148023.47;;;7.41;100.00
59531;BME280;45349;48.692;8.186;2024-02-26T07:40:15;148016.03;;;7.37;100.00
59531;BME280;45349;48.692;8.186;2024-02-26T07:42:42;148018.50;;;7.38;100.00
59531;BME280;45349;48.692;8.186;2024-02-26T07:45:09;148023.47;;;7.41;100.00
59531;BME280;45349;48.692;8.186;2024-02-26T07:47:37;148039.63;;;7.47;100.00
59531;BME280;45349;48.692;8.186;2024-02-26T07:50:07;148045.84;;;7.50;100.00
59531;BME280;45349;48.692;8.186;2024-02-26T07:52:33;148047.06;;;7.50;100.00
59531;BME280;45349;48.692;8.186;2024-02-26T07:55:00;148053.31;;;7.53;100.00
59531;BME280;45349;48.692;8.186;2024-02-26T07:57:27;148069.44;;;7.60;100.00
59531;BME280;45349;48.692;8.186;2024-02-26T07:59:54;148090.59;;;7.68;100.00
59531;BME280;45349;48.692;8.186;2024-02-26T08:02:21;148114.19;;;7.78;100.00
59531;BME280;45349;48.692;8.186;2024-02-26T08:04:49;148124.16;;;7.82;100.00
59531;BME280;45349;48.692;8.186;2024-02-26T08:07:16;148140.34;;;7.89;100.00
59531;BME280;45349;48.692;8.186;2024-02-26T08:09:43;148170.13;;;8.02;100.00
59531;BME280;45349;48.692;8.186;2024-02-26T08:12:09;148214.91;;;8.20;100.00
59531;BME280;45349;48.692;8.186;2024-02-26T08:14:36;148246.00;;;8.33;100.00
59531;BME280;45349;48.692;8.186;2024-02-26T08:17:03;148263.41;;;8.40;100.00
59531;BME280;45349;48.692;8.186;2024-02-26T08:19:29;148280.84;;;8.48;100.00
59531;BME280;45349;48.692;8.186;2024-02-26T08:21:58;148290.78;;;8.52;100.00
59531;BME280;45349;48.692;8.186;2024-02-26T08:24:24;148297.03;;;8.54;100.00
59531;BME280;45349;48.692;8.186;2024-02-26T08:26:51;148272.09;;;8.44;100.00
59531;BME280;45349;48.692;8.186;2024-02-26T08:29:17;148315.66;;;8.62;100.00
59531;BME280;45349;48.692;8.186;2024-02-26T08:31:44;148320.63;;;8.64;100.00
59531;BME280;45349;48.692;8.186;2024-02-26T08:34:11;148346.78;;;8.75;100.00
59531;BME280;45349;48.692;8.186;2024-02-26T08:36:37;148345.50;;;8.75;100.00
59531;BME280;45349;48.692;8.186;2024-02-26T08:39:05;148391.56;;;8.94;100.00
59531;BME280;45349;48.692;8.186;2024-02-26T08:41:32;148436.31;;;9.12;100.00
59531;BME280;45349;48.692;8.186;2024-02-26T08:43:59;148463.69;;;9.24;100.00
59531;BME280;45349;48.692;8.186;2024-02-26T08:46:25;148493.56;;;9.36;100.00
59531;BME280;45349;48.692;8.186;2024-02-26T08:48:52;148528.41;;;9.51;100.00
59531;BME280;45349;48.692;8.186;2024-02-26T08:51:19;148507.28;;;9.42;100.00
59531;BME280;45349;48.692;8.186;2024-02-26T08:53:45;148481.13;;;9.31;100.00
59531;BME280;45349;48.692;8.186;2024-02-26T08:56:13;148479.91;;;9.30;100.00
59531;BME280;45349;48.692;8.186;2024-02-26T08:58:42;148484.88;;;9.33;100.00
59531;BME280;45349;48.692;8.186;2024-02-26T09:01:09;148466.19;;;9.25;100.00
59531;BME280;45349;48.692;8.186;2024-02-26T09:03:36;148487.38;;;9.34;100.00
59531;BME280;45349;48.692;8.186;2024-02-26T09:06:03;148515.97;;;9.45;100.00
59531;BME280;45349;48.692;8.186;2024-02-26T09:08:30;148542.09;;;9.56;100.00
59531;BME280;45349;48.692;8.186;2024-02-26T09:10:57;148574.44;;;9.70;100.00
59531;BME280;45349;48.692;8.186;2024-02-26T09:13:25;148578.22;;;9.71;100.00
59531;BME280;45349;48.692;8.186;2024-02-26T09:15:51;148593.16;;;9.78;100.00
59531;BME280;45349;48.692;8.186;2024-02-26T09:18:18;148608.09;;;9.84;100.00
59531;BME280;45349;48.692;8.186;2024-02-26T09:20:44;148629.22;;;9.93;100.00
59531;BME280;45349;48.692;8.186;2024-02-26T09:23:11;148600.63;;;9.81;100.00
59531;BME280;45349;48.692;8.186;2024-02-26T09:25:38;148581.91;;;9.73;100.00
59531;BME280;45349;48.692;8.186;2024-02-26T09:28:04;148598.13;;;9.80;100.00
59531;BME280;45349;48.692;8.186;2024-02-26T09:30:32;148593.16;;;9.78;100.00
59531;BME280;45349;48.692;8.186;2024-02-26T09:32:59;148594.38;;;9.78;100.00
59531;BME280;45349;48.692;8.186;2024-02-26T09:35:26;148605.59;;;9.83;100.00
59531;BME280;45349;48.692;8.186;2024-02-26T09:37:52;148645.44;;;9.99;100.00
59531;BME280;45349;48.692;8.186;2024-02-26T09:40:19;148656.63;;;10.04;100.00
59531;BME280;45349;48.692;8.186;2024-02-26T09:42:47;148666.59;;;10.08;100.00
59531;BME280;45349;48.692;8.186;2024-02-26T09:45:18;148706.44;;;10.25;100.00
59531;BME280;45349;48.692;8.186;2024-02-26T09:47:47;148732.56;;;10.36;100.00
59531;BME280;45349;48.692;8.186;2024-02-26T09:50:16;148768.75;;;10.51;100.00
59531;BME280;45349;48.692;8.186;2024-02-26T09:52:43;148838.44;;;10.80;100.00
59531;BME280;45349;48.692;8.186;2024-02-26T09:55:10;148900.75;;;11.05;100.00
59531;BME280;45349;48.692;8.186;2024-02-26T09:57:37;148929.38;;;11.17;100.00
59531;BME280;45349;48.692;8.186;2024-02-26T10:00:07;148985.47;;;11.41;100.00
59531;BME280;45349;48.692;8.186;2024-02-26T10:02:38;149030.34;;;11.59;100.00
59531;BME280;45349;48.692;8.186;2024-02-26T10:05:10;149082.66;;;11.81;100.00
59531;BME280;45349;48.692;8.186;2024-02-26T10:07:37;149091.41;;;11.85;100.00
59531;BME280;45349;48.692;8.186;2024-02-26T10:10:05;149092.63;;;11.85;100.00
59531;BME280;45349;48.692;8.186;2024-02-26T10:12:32;149087.63;;;11.83;100.00
59531;BME280;45349;48.692;8.186;2024-02-26T10:14:59;149087.63;;;11.83;100.00
59531;BME280;45349;48.692;8.186;2024-02-26T10:17:26;149113.84;;;11.94;100.00
59531;BME280;45349;48.692;8.186;2024-02-26T10:19:54;149177.44;;;12.20;100.00
59531;BME280;45349;48.692;8.186;2024-02-26T10:22:23;149169.97;;;12.17;100.00
59531;BME280;45349;48.692;8.186;2024-02-26T10:24:49;149173.72;;;12.19;100.00
59531;BME280;45349;48.692;8.186;2024-02-26T10:27:16;149209.88;;;12.34;100.00
59531;BME280;45349;48.692;8.186;2024-02-26T10:29:43;149294.69;;;12.69;99.97
59531;BME280;45349;48.692;8.186;2024-02-26T10:32:12;149380.72;;;13.05;98.46
59531;BME280;45349;48.692;8.186;2024-02-26T10:34:39;149332.06;;;12.84;95.05
59531;BME280;45349;48.692;8.186;2024-02-26T10:37:07;149333.31;;;12.85;97.24
59531;BME280;45349;48.692;8.186;2024-02-26T10:39:36;149340.81;;;12.88;98.07
59531;BME280;45349;48.692;8.186;2024-02-26T10:42:03;149312.09;;;12.76;98.69
59531;BME280;45349;48.692;8.186;2024-02-26T10:44:35;149324.56;;;12.81;100.00
59531;BME280;45349;48.692;8.186;2024-02-26T10:47:01;149338.31;;;12.87;99.93
59531;BME280;45349;48.692;8.186;2024-02-26T10:49:28;149325.84;;;12.82;100.00
59531;BME280;45349;48.692;8.186;2024-02-26T10:51:56;149374.47;;;13.02;97.32
59531;BME280;45349;48.692;8.186;2024-02-26T10:54:25;149353.28;;;12.93;95.03
59531;BME280;45349;48.692;8.186;2024-02-26T10:56:56;149314.59;;;12.77;92.42
59531;BME280;45349;48.692;8.186;2024-02-26T10:59:22;149285.91;;;12.65;96.08
59531;BME280;45349;48.692;8.186;2024-02-26T11:01:50;149254.75;;;12.52;96.90
59531;BME280;45349;48.692;8.186;2024-02-26T11:04:17;149264.75;;;12.57;98.60
59531;BME280;45349;48.692;8.186;2024-02-26T11:06:44;149302.13;;;12.72;94.08
59531;BME280;45349;48.692;8.186;2024-02-26T11:09:12;149287.19;;;12.66;93.83
59531;BME280;45349;48.692;8.186;2024-02-26T11:11:41;149263.47;;;12.56;94.90
59531;BME280;45349;48.692;8.186;2024-02-26T11:14:09;149228.56;;;12.42;96.08
59531;BME280;45349;48.692;8.186;2024-02-26T11:16:39;149209.88;;;12.34;97.30
59531;BME280;45349;48.692;8.186;2024-02-26T11:19:09;149222.34;;;12.39;100.00
59531;BME280;45349;48.692;8.186;2024-02-26T11:21:36;149308.38;;;12.75;100.00
59531;BME280;45349;48.692;8.186;2024-02-26T11:24:08;149329.56;;;12.83;98.17
59531;BME280;45349;48.692;8.186;2024-02-26T11:26:40;149337.03;;;12.87;97.65
59531;BME280;45349;48.692;8.186;2024-02-26T11:29:13;149390.72;;;13.09;95.91
59531;BME280;45349;48.692;8.186;2024-02-26T11:31:41;149460.53;;;13.38;93.91
59531;BME280;45349;48.692;8.186;2024-02-26T11:34:09;149414.38;;;13.19;92.29
59531;BME280;45349;48.692;8.186;2024-02-26T11:36:36;149386.94;;;13.07;92.83
59531;BME280;45349;48.692;8.186;2024-02-26T11:39:04;149444.34;;;13.31;93.32
59531;BME280;45349;48.692;8.186;2024-02-26T11:41:31;149498.00;;;13.53;90.47
59531;BME280;45349;48.692;8.186;2024-02-26T11:44:00;149484.31;;;13.48;87.93
59531;BME280;45349;48.692;8.186;2024-02-26T11:46:29;149521.75;;;13.63;86.34
59531;BME280;45349;48.692;8.186;2024-02-26T11:48:58;149481.81;;;13.47;79.54
59531;BME280;45349;48.692;8.186;2024-02-26T11:51:26;149423.16;;;13.22;81.84
59531;BME280;45349;48.692;8.186;2024-02-26T11:53:53;149385.72;;;13.07;83.00
59531;BME280;45349;48.692;8.186;2024-02-26T11:56:25;149354.50;;;12.94;84.54
59531;BME280;45349;48.692;8.186;2024-02-26T11:58:57;149378.22;;;13.04;84.31
59531;BME280;45349;48.692;8.186;2024-02-26T12:01:43;149364.50;;;12.98;79.76
59531;BME280;45349;48.692;8.186;2024-02-26T12:04:15;149292.19;;;12.68;81.40
59531;BME280;45349;48.692;8.186;2024-02-26T12:06:51;149343.31;;;12.89;80.24
59531;BME280;45349;48.692;8.186;2024-02-26T12:09:31;149327.06;;;12.82;81.36
59531;BME280;45349;48.692;8.186;2024-02-26T12:11:58;149329.56;;;12.83;81.12
59531;BME280;45349;48.692;8.186;2024-02-26T12:14:25;149398.19;;;13.12;77.91
59531;BME280;45349;48.692;8.186;2024-02-26T12:16:58;149399.41;;;13.12;80.52
59531;BME280;45349;48.692;8.186;2024-02-26T12:19:25;149463.03;;;13.39;76.18
59531;BME280;45349;48.692;8.186;2024-02-26T12:21:56;149456.81;;;13.36;77.95
59531;BME280;45349;48.692;8.186;2024-02-26T12:24:22;149451.81;;;13.34;78.77
59531;BME280;45349;48.692;8.186;2024-02-26T12:26:49;149475.56;;;13.44;76.40
59531;BME280;45349;48.692;8.186;2024-02-26T12:29:16;149535.47;;;13.69;72.46
59531;BME280;45349;48.692;8.186;2024-02-26T12:31:43;149520.47;;;13.63;74.33
59531;BME280;45349;48.692;8.186;2024-02-26T12:34:12;149547.94;;;13.74;71.25
59531;BME280;45349;48.692;8.186;2024-02-26T12:36:39;149496.78;;;13.53;70.88
59531;BME280;45349;48.692;8.186;2024-02-26T12:39:06;149508.00;;;13.57;70.24
59531;BME280;45349;48.692;8.186;2024-02-26T12:41:34;149493.03;;;13.51;71.03
59531;BME280;45349;48.692;8.186;2024-02-26T12:44:02;149503.00;;;13.55;70.70
59531;BME280;45349;48.692;8.186;2024-02-26T12:46:28;149483.03;;;13.47;71.76
59531;BME280;45349;48.692;8.186;2024-02-26T12:48:56;149493.03;;;13.51;73.95
59531;BME280;45349;48.692;8.186;2024-02-26T12:51:25;149534.22;;;13.68;84.66
59531;BME280;45349;48.692;8.186;2024-02-26T12:54:12;149552.94;;;13.76;76.30